Aviation Digital Data Service (ADDS)

Output produced by TAFs form (0839 UTC 05 May 2016)
found at http://www.aviationweather.gov/adds/tafs/
 
KBJC 050834Z AUTO 26004KT 10SM CLR 09/02 A3014 RMK AO2
KBJC 050537Z 0506/0606 VRB04KT P6SM FEW120 
     FM050900 25007KT P6SM FEW220 
     FM051500 VRB05KT P6SM SCT220 
     FM051900 13011KT P6SM FEW100 SCT220 
     FM060200 17008KT P6SM SCT080 BKN140 
     FM060500 23006KT P6SM FEW080 BKN200